sensor_id;sensor_type;location;lat;lon;timestamp;pressure;altitude;pressure_sealevel;temperature;humidity
74403;BME280;62837;51.082;13.744;2023-07-20T00:02:21;99867.70;;;22.06;57.45
74403;BME280;62837;51.082;13.744;2023-07-20T00:04:52;99870.01;;;22.08;57.62
74403;BME280;62837;51.082;13.744;2023-07-20T00:07:23;99875.82;;;22.10;57.26
74403;BME280;62837;51.082;13.744;2023-07-20T00:09:57;99879.48;;;22.14;57.40
74403;BME280;62837;51.082;13.744;2023-07-20T00:12:28;99878.86;;;22.16;57.56
74403;BME280;62837;51.082;13.744;2023-07-20T00:15:00;99878.81;;;22.13;57.68
74403;BME280;62837;51.082;13.744;2023-07-20T00:17:30;99883.52;;;22.08;57.95
74403;BME280;62837;51.082;13.744;2023-07-20T00:20:02;99877.39;;;21.97;58.23
74403;BME280;62837;51.082;13.744;2023-07-20T00:22:34;99877.80;;;21.91;58.33
74403;BME280;62837;51.082;13.744;2023-07-20T00:25:07;99870.69;;;21.87;58.33
74403;BME280;62837;51.082;13.744;2023-07-20T00:27:38;99866.61;;;21.92;58.13
74403;BME280;62837;51.082;13.744;2023-07-20T00:30:11;99867.98;;;22.01;58.04
74403;BME280;62837;51.082;13.744;2023-07-20T00:32:45;99869.89;;;22.09;57.82
74403;BME280;62837;51.082;13.744;2023-07-20T00:35:18;99867.30;;;22.11;57.89
74403;BME280;62837;51.082;13.744;2023-07-20T00:37:49;99869.73;;;22.07;57.84
74403;BME280;62837;51.082;13.744;2023-07-20T00:40:23;99870.48;;;22.09;57.65
74403;BME280;62837;51.082;13.744;2023-07-20T00:42:54;99875.40;;;22.09;58.03
74403;BME280;62837;51.082;13.744;2023-07-20T00:45:27;99881.13;;;22.01;58.33
74403;BME280;62837;51.082;13.744;2023-07-20T00:47:58;99891.32;;;21.91;58.75
74403;BME280;62837;51.082;13.744;2023-07-20T00:50:30;99885.75;;;21.76;59.00
74403;BME280;62837;51.082;13.744;2023-07-20T00:53:04;99886.27;;;21.75;58.92
74403;BME280;62837;51.082;13.744;2023-07-20T00:55:36;99891.09;;;21.74;58.89
74403;BME280;62837;51.082;13.744;2023-07-20T00:58:06;99893.32;;;21.78;59.01
74403;BME280;62837;51.082;13.744;2023-07-20T01:00:38;99895.89;;;21.80;58.88
74403;BME280;62837;51.082;13.744;2023-07-20T01:03:09;99886.73;;;21.86;58.80
74403;BME280;62837;51.082;13.744;2023-07-20T01:05:45;99884.39;;;21.94;58.52
74403;BME280;62837;51.082;13.744;2023-07-20T01:08:24;99884.38;;;22.02;58.36
74403;BME280;62837;51.082;13.744;2023-07-20T01:11:03;99879.49;;;22.05;58.17
74403;BME280;62837;51.082;13.744;2023-07-20T01:13:37;99877.33;;;22.05;58.20
74403;BME280;62837;51.082;13.744;2023-07-20T01:16:07;99881.77;;;22.01;57.98
74403;BME280;62837;51.082;13.744;2023-07-20T01:18:38;99885.98;;;22.03;57.99
74403;BME280;62837;51.082;13.744;2023-07-20T01:21:12;99887.25;;;21.98;58.12
74403;BME280;62837;51.082;13.744;2023-07-20T01:27:29;99895.14;;;21.88;58.22
74403;BME280;62837;51.082;13.744;2023-07-20T01:30:28;99902.59;;;21.78;58.43
74403;BME280;62837;51.082;13.744;2023-07-20T01:33:07;99905.09;;;21.72;58.67
74403;BME280;62837;51.082;13.744;2023-07-20T01:35:41;99903.09;;;21.56;58.95
74403;BME280;62837;51.082;13.744;2023-07-20T01:38:14;99900.27;;;21.54;58.90
74403;BME280;62837;51.082;13.744;2023-07-20T01:40:46;99900.95;;;21.59;59.00
74403;BME280;62837;51.082;13.744;2023-07-20T01:43:17;99905.95;;;21.66;58.70
74403;BME280;62837;51.082;13.744;2023-07-20T01:45:49;99898.36;;;21.71;58.44
74403;BME280;62837;51.082;13.744;2023-07-20T01:48:20;99903.53;;;21.77;58.42
74403;BME280;62837;51.082;13.744;2023-07-20T01:50:51;99903.77;;;21.82;58.19
74403;BME280;62837;51.082;13.744;2023-07-20T01:53:23;99900.23;;;21.83;58.01
74403;BME280;62837;51.082;13.744;2023-07-20T01:55:56;99899.23;;;21.78;58.20
74403;BME280;62837;51.082;13.744;2023-07-20T01:58:27;99898.05;;;21.76;57.87
74403;BME280;62837;51.082;13.744;2023-07-20T02:00:58;99899.44;;;21.77;57.88
74403;BME280;62837;51.082;13.744;2023-07-20T02:03:30;99901.75;;;21.81;57.98
74403;BME280;62837;51.082;13.744;2023-07-20T02:06:01;99900.16;;;21.79;57.85
74403;BME280;62837;51.082;13.744;2023-07-20T02:08:32;99896.89;;;21.73;57.90
74403;BME280;62837;51.082;13.744;2023-07-20T02:11:03;99891.05;;;21.73;57.91
74403;BME280;62837;51.082;13.744;2023-07-20T02:13:34;99894.55;;;21.72;57.89
74403;BME280;62837;51.082;13.744;2023-07-20T02:16:06;99897.22;;;21.70;57.88
74403;BME280;62837;51.082;13.744;2023-07-20T02:18:37;99895.59;;;21.65;57.90
74403;BME280;62837;51.082;13.744;2023-07-20T02:21:09;99897.31;;;21.64;57.78
74403;BME280;62837;51.082;13.744;2023-07-20T02:23:41;99900.91;;;21.67;57.91
74403;BME280;62837;51.082;13.744;2023-07-20T02:26:12;99900.63;;;21.68;57.74
74403;BME280;62837;51.082;13.744;2023-07-20T02:28:43;99903.45;;;21.68;57.97
74403;BME280;62837;51.082;13.744;2023-07-20T02:31:14;99900.45;;;21.54;58.13
74403;BME280;62837;51.082;13.744;2023-07-20T02:33:46;99902.73;;;21.44;58.31
74403;BME280;62837;51.082;13.744;2023-07-20T02:36:17;99909.70;;;21.36;58.52
74403;BME280;62837;51.082;13.744;2023-07-20T02:38:49;99910.20;;;21.31;58.46
74403;BME280;62837;51.082;13.744;2023-07-20T02:41:21;99909.04;;;21.27;58.72
74403;BME280;62837;51.082;13.744;2023-07-20T02:43:52;99909.76;;;21.23;59.05
74403;BME280;62837;51.082;13.744;2023-07-20T02:46:23;99909.69;;;21.24;58.94
74403;BME280;62837;51.082;13.744;2023-07-20T02:48:54;99906.40;;;21.25;58.92
74403;BME280;62837;51.082;13.744;2023-07-20T02:51:25;99910.39;;;21.27;58.93
74403;BME280;62837;51.082;13.744;2023-07-20T02:53:57;99911.98;;;21.27;58.89
74403;BME280;62837;51.082;13.744;2023-07-20T02:56:28;99916.67;;;21.22;58.85
74403;BME280;62837;51.082;13.744;2023-07-20T02:58:59;99916.58;;;21.18;59.06
74403;BME280;62837;51.082;13.744;2023-07-20T03:01:30;99921.69;;;21.22;59.04
74403;BME280;62837;51.082;13.744;2023-07-20T03:04:01;99928.05;;;21.27;58.92
74403;BME280;62837;51.082;13.744;2023-07-20T03:06:34;99928.90;;;21.33;58.72
74403;BME280;62837;51.082;13.744;2023-07-20T03:09:06;99929.70;;;21.37;58.59
74403;BME280;62837;51.082;13.744;2023-07-20T03:11:39;99931.08;;;21.37;58.55
74403;BME280;62837;51.082;13.744;2023-07-20T03:14:10;99931.11;;;21.32;58.73
74403;BME280;62837;51.082;13.744;2023-07-20T03:16:41;99932.23;;;21.24;58.69
74403;BME280;62837;51.082;13.744;2023-07-20T03:19:15;99934.05;;;21.23;58.70
74403;BME280;62837;51.082;13.744;2023-07-20T03:21:46;99938.19;;;21.21;58.84
74403;BME280;62837;51.082;13.744;2023-07-20T03:24:17;99940.19;;;21.21;58.65
74403;BME280;62837;51.082;13.744;2023-07-20T03:26:49;99941.29;;;21.05;59.15
74403;BME280;62837;51.082;13.744;2023-07-20T03:29:20;99943.36;;;20.79;59.39
74403;BME280;62837;51.082;13.744;2023-07-20T03:31:51;99942.08;;;20.73;59.79
74403;BME280;62837;51.082;13.744;2023-07-20T03:34:22;99938.06;;;20.74;59.91
74403;BME280;62837;51.082;13.744;2023-07-20T03:36:54;99947.93;;;20.79;59.71
74403;BME280;62837;51.082;13.744;2023-07-20T03:39:25;99942.82;;;20.89;59.76
74403;BME280;62837;51.082;13.744;2023-07-20T03:41:56;99945.46;;;20.99;59.65
74403;BME280;62837;51.082;13.744;2023-07-20T03:44:28;99947.05;;;21.00;59.62
74403;BME280;62837;51.082;13.744;2023-07-20T03:46:59;99947.79;;;21.05;59.32
74403;BME280;62837;51.082;13.744;2023-07-20T03:49:31;99949.63;;;21.15;59.38
74403;BME280;62837;51.082;13.744;2023-07-20T03:52:02;99943.43;;;21.22;59.39
74403;BME280;62837;51.082;13.744;2023-07-20T03:54:32;99937.73;;;21.29;59.05
74403;BME280;62837;51.082;13.744;2023-07-20T03:57:04;99943.55;;;21.35;58.81
74403;BME280;62837;51.082;13.744;2023-07-20T03:59:36;99944.02;;;21.42;58.84
74403;BME280;62837;51.082;13.744;2023-07-20T04:02:08;99943.41;;;21.47;58.60
74403;BME280;62837;51.082;13.744;2023-07-20T04:04:39;99947.42;;;21.51;58.69
74403;BME280;62837;51.082;13.744;2023-07-20T04:07:10;99949.01;;;21.55;58.48
74403;BME280;62837;51.082;13.744;2023-07-20T04:09:44;99949.06;;;21.56;58.45
74403;BME280;62837;51.082;13.744;2023-07-20T04:12:15;99953.02;;;21.60;58.32
74403;BME280;62837;51.082;13.744;2023-07-20T04:14:46;99955.58;;;21.64;58.22
74403;BME280;62837;51.082;13.744;2023-07-20T04:17:18;99956.31;;;21.60;58.12
74403;BME280;62837;51.082;13.744;2023-07-20T04:19:49;99952.11;;;21.55;58.16
74403;BME280;62837;51.082;13.744;2023-07-20T04:22:20;99947.83;;;21.54;58.03
74403;BME280;62837;51.082;13.744;2023-07-20T04:24:52;99950.05;;;21.49;58.29
74403;BME280;62837;51.082;13.744;2023-07-20T04:27:26;99952.85;;;21.46;58.39
74403;BME280;62837;51.082;13.744;2023-07-20T04:29:57;99952.05;;;21.46;58.52
74403;BME280;62837;51.082;13.744;2023-07-20T04:32:29;99956.45;;;21.49;58.25
74403;BME280;62837;51.082;13.744;2023-07-20T04:35:07;99953.16;;;21.44;58.29
74403;BME280;62837;51.082;13.744;2023-07-20T04:37:41;99957.30;;;21.37;58.45
74403;BME280;62837;51.082;13.744;2023-07-20T04:40:18;99955.23;;;21.28;58.63
74403;BME280;62837;51.082;13.744;2023-07-20T04:42:49;99954.08;;;21.19;58.89
74403;BME280;62837;51.082;13.744;2023-07-20T04:45:20;99951.69;;;21.09;59.20
74403;BME280;62837;51.082;13.744;2023-07-20T04:47:53;99955.32;;;21.06;59.23
74403;BME280;62837;51.082;13.744;2023-07-20T04:50:24;99957.55;;;21.17;59.25
74403;BME280;62837;51.082;13.744;2023-07-20T04:52:58;99957.32;;;21.30;58.87
74403;BME280;62837;51.082;13.744;2023-07-20T04:55:31;99957.05;;;21.43;58.83
74403;BME280;62837;51.082;13.744;2023-07-20T04:58:05;99958.25;;;21.52;58.74
74403;BME280;62837;51.082;13.744;2023-07-20T05:00:39;99954.36;;;21.53;58.44
74403;BME280;62837;51.082;13.744;2023-07-20T05:03:11;99958.49;;;21.63;58.20
74403;BME280;62837;51.082;13.744;2023-07-20T05:05:42;99964.21;;;21.64;58.08
74403;BME280;62837;51.082;13.744;2023-07-20T05:08:17;99966.02;;;21.61;58.06
74403;BME280;62837;51.082;13.744;2023-07-20T05:10:52;99968.92;;;21.79;57.99
74403;BME280;62837;51.082;13.744;2023-07-20T05:13:24;99967.95;;;22.03;57.67
74403;BME280;62837;51.082;13.744;2023-07-20T05:15:55;99968.48;;;22.26;57.41
74403;BME280;62837;51.082;13.744;2023-07-20T05:18:27;99965.95;;;22.41;57.11
74403;BME280;62837;51.082;13.744;2023-07-20T05:20:58;99966.41;;;22.47;56.76
74403;BME280;62837;51.082;13.744;2023-07-20T05:23:29;99966.02;;;22.49;56.62
74403;BME280;62837;51.082;13.744;2023-07-20T05:26:03;99967.24;;;22.53;56.45
74403;BME280;62837;51.082;13.744;2023-07-20T05:28:36;99964.80;;;22.51;56.23
74403;BME280;62837;51.082;13.744;2023-07-20T05:31:10;99967.53;;;22.54;56.26
74403;BME280;62837;51.082;13.744;2023-07-20T05:33:43;99966.15;;;22.49;56.40
74403;BME280;62837;51.082;13.744;2023-07-20T05:36:29;99966.17;;;22.47;56.30
74403;BME280;62837;51.082;13.744;2023-07-20T05:39:00;99967.61;;;22.47;56.38
74403;BME280;62837;51.082;13.744;2023-07-20T05:41:31;99964.88;;;22.53;56.34
74403;BME280;62837;51.082;13.744;2023-07-20T05:44:03;99964.65;;;22.66;56.16
74403;BME280;62837;51.082;13.744;2023-07-20T05:46:34;99966.61;;;22.79;55.89
74403;BME280;62837;51.082;13.744;2023-07-20T05:49:25;99970.28;;;22.76;55.85
74403;BME280;62837;51.082;13.744;2023-07-20T05:51:57;99974.23;;;22.65;55.69
74403;BME280;62837;51.082;13.744;2023-07-20T05:54:30;99973.23;;;22.52;55.87
74403;BME280;62837;51.082;13.744;2023-07-20T05:57:01;99976.91;;;22.45;55.90
74403;BME280;62837;51.082;13.744;2023-07-20T05:59:34;99977.79;;;22.29;56.15
74403;BME280;62837;51.082;13.744;2023-07-20T06:02:07;99978.86;;;22.23;56.15
74403;BME280;62837;51.082;13.744;2023-07-20T06:04:38;99982.20;;;22.18;56.25
74403;BME280;62837;51.082;13.744;2023-07-20T06:07:10;99983.02;;;22.07;56.60
74403;BME280;62837;51.082;13.744;2023-07-20T06:09:41;99984.64;;;22.03;56.84
74403;BME280;62837;51.082;13.744;2023-07-20T06:12:12;99987.00;;;21.94;57.23
74403;BME280;62837;51.082;13.744;2023-07-20T06:14:43;99989.56;;;21.87;57.19
74403;BME280;62837;51.082;13.744;2023-07-20T06:17:14;99991.73;;;21.88;57.30
74403;BME280;62837;51.082;13.744;2023-07-20T06:19:45;99993.16;;;21.94;57.14
74403;BME280;62837;51.082;13.744;2023-07-20T06:22:16;99991.89;;;22.03;57.16
74403;BME280;62837;51.082;13.744;2023-07-20T06:24:47;99990.13;;;22.14;57.00
74403;BME280;62837;51.082;13.744;2023-07-20T06:27:18;99991.60;;;22.26;56.60
74403;BME280;62837;51.082;13.744;2023-07-20T06:29:50;99991.05;;;22.28;56.31
74403;BME280;62837;51.082;13.744;2023-07-20T06:32:21;99997.05;;;22.28;55.88
74403;BME280;62837;51.082;13.744;2023-07-20T06:34:52;100000.17;;;22.28;55.82
74403;BME280;62837;51.082;13.744;2023-07-20T06:37:23;99997.67;;;22.28;55.88
74403;BME280;62837;51.082;13.744;2023-07-20T06:39:55;99999.77;;;22.23;55.70
74403;BME280;62837;51.082;13.744;2023-07-20T06:42:28;100004.13;;;22.26;55.85
74403;BME280;62837;51.082;13.744;2023-07-20T06:45:04;100007.45;;;22.19;56.24
74403;BME280;62837;51.082;13.744;2023-07-20T06:47:37;100017.60;;;22.10;56.16
74403;BME280;62837;51.082;13.744;2023-07-20T06:50:10;100020.52;;;22.06;56.24
74403;BME280;62837;51.082;13.744;2023-07-20T06:52:46;100018.17;;;21.99;56.25
74403;BME280;62837;51.082;13.744;2023-07-20T06:55:18;100023.08;;;22.00;56.54
74403;BME280;62837;51.082;13.744;2023-07-20T06:57:52;100021.92;;;21.95;56.64
74403;BME280;62837;51.082;13.744;2023-07-20T07:00:28;100026.02;;;21.89;56.63
74403;BME280;62837;51.082;13.744;2023-07-20T07:02:59;100029.73;;;21.86;56.86
74403;BME280;62837;51.082;13.744;2023-07-20T07:05:30;100029.25;;;21.79;56.82
74403;BME280;62837;51.082;13.744;2023-07-20T07:08:06;100024.71;;;21.80;56.82
74403;BME280;62837;51.082;13.744;2023-07-20T07:10:37;100022.91;;;21.77;57.19
74403;BME280;62837;51.082;13.744;2023-07-20T07:13:08;100019.55;;;21.75;57.19
74403;BME280;62837;51.082;13.744;2023-07-20T07:15:40;100022.42;;;21.77;57.26
74403;BME280;62837;51.082;13.744;2023-07-20T07:18:11;100021.43;;;21.82;57.43
74403;BME280;62837;51.082;13.744;2023-07-20T07:20:42;100026.27;;;21.85;57.55
74403;BME280;62837;51.082;13.744;2023-07-20T07:23:20;100025.44;;;21.82;57.60
74403;BME280;62837;51.082;13.744;2023-07-20T07:25:51;100024.20;;;21.90;57.44
74403;BME280;62837;51.082;13.744;2023-07-20T07:28:22;100025.73;;;21.96;58.02
74403;BME280;62837;51.082;13.744;2023-07-20T07:30:54;100027.02;;;21.98;57.80
74403;BME280;62837;51.082;13.744;2023-07-20T07:33:26;100028.59;;;22.00;58.18
74403;BME280;62837;51.082;13.744;2023-07-20T07:35:58;100032.16;;;21.89;58.74
74403;BME280;62837;51.082;13.744;2023-07-20T07:38:31;100031.86;;;21.91;58.05
74403;BME280;62837;51.082;13.744;2023-07-20T07:41:22;100036.12;;;21.90;57.75
74403;BME280;62837;51.082;13.744;2023-07-20T07:43:53;100032.92;;;21.86;57.86
74403;BME280;62837;51.082;13.744;2023-07-20T07:46:24;100028.50;;;21.80;57.83
74403;BME280;62837;51.082;13.744;2023-07-20T07:48:56;100033.27;;;21.82;57.75
74403;BME280;62837;51.082;13.744;2023-07-20T07:51:27;100032.85;;;21.86;57.45
74403;BME280;62837;51.082;13.744;2023-07-20T07:53:58;100034.04;;;21.90;57.42
74403;BME280;62837;51.082;13.744;2023-07-20T07:56:30;100040.63;;;21.98;57.14
74403;BME280;62837;51.082;13.744;2023-07-20T07:59:01;100041.59;;;22.09;56.91
74403;BME280;62837;51.082;13.744;2023-07-20T08:01:32;100038.52;;;22.33;56.73
74403;BME280;62837;51.082;13.744;2023-07-20T08:04:04;100032.82;;;22.50;56.27
74403;BME280;62837;51.082;13.744;2023-07-20T08:06:35;100029.34;;;22.67;55.97
74403;BME280;62837;51.082;13.744;2023-07-20T08:09:06;100022.68;;;23.05;55.35
74403;BME280;62837;51.082;13.744;2023-07-20T08:11:40;100022.54;;;23.18;54.74
74403;BME280;62837;51.082;13.744;2023-07-20T08:14:11;100021.56;;;23.33;54.62
74403;BME280;62837;51.082;13.744;2023-07-20T08:16:42;100022.95;;;23.43;54.27
74403;BME280;62837;51.082;13.744;2023-07-20T08:19:14;100021.64;;;23.40;54.22
74403;BME280;62837;51.082;13.744;2023-07-20T08:21:45;100027.48;;;23.27;53.99
74403;BME280;62837;51.082;13.744;2023-07-20T08:24:16;100028.33;;;23.24;53.98
74403;BME280;62837;51.082;13.744;2023-07-20T08:26:47;100026.29;;;23.20;53.70
74403;BME280;62837;51.082;13.744;2023-07-20T08:29:18;100035.40;;;22.99;53.88
74403;BME280;62837;51.082;13.744;2023-07-20T08:31:49;100027.36;;;23.06;54.15
74403;BME280;62837;51.082;13.744;2023-07-20T08:34:20;100027.16;;;23.27;54.43
74403;BME280;62837;51.082;13.744;2023-07-20T08:37:00;100028.80;;;23.56;54.13
74403;BME280;62837;51.082;13.744;2023-07-20T08:39:31;100020.85;;;23.85;53.78
74403;BME280;62837;51.082;13.744;2023-07-20T08:42:06;100021.18;;;23.96;53.03
74403;BME280;62837;51.082;13.744;2023-07-20T08:44:38;100018.14;;;24.08;52.53
74403;BME280;62837;51.082;13.744;2023-07-20T08:47:10;100029.41;;;24.25;51.76
74403;BME280;62837;51.082;13.744;2023-07-20T08:49:42;100022.33;;;24.39;51.64
74403;BME280;62837;51.082;13.744;2023-07-20T08:52:13;100020.70;;;24.66;50.79
74403;BME280;62837;51.082;13.744;2023-07-20T08:54:45;100017.66;;;24.88;50.30
74403;BME280;62837;51.082;13.744;2023-07-20T08:57:16;100022.81;;;25.07;49.64
74403;BME280;62837;51.082;13.744;2023-07-20T08:59:46;100019.61;;;25.14;49.62
74403;BME280;62837;51.082;13.744;2023-07-20T09:02:19;100023.70;;;25.00;49.18
74403;BME280;62837;51.082;13.744;2023-07-20T09:04:53;100019.76;;;25.10;49.68
74403;BME280;62837;51.082;13.744;2023-07-20T09:07:25;100028.98;;;25.12;48.95
74403;BME280;62837;51.082;13.744;2023-07-20T09:09:59;100027.64;;;25.07;48.27
74403;BME280;62837;51.082;13.744;2023-07-20T09:12:36;100030.11;;;24.84;48.19
74403;BME280;62837;51.082;13.744;2023-07-20T09:15:10;100028.05;;;24.67;48.72
74403;BME280;62837;51.082;13.744;2023-07-20T09:17:47;100031.11;;;24.55;48.54
74403;BME280;62837;51.082;13.744;2023-07-20T09:20:19;100029.97;;;24.39;48.58
74403;BME280;62837;51.082;13.744;2023-07-20T09:22:53;100027.09;;;24.37;49.10
74403;BME280;62837;51.082;13.744;2023-07-20T09:25:24;100019.15;;;24.62;49.28
74403;BME280;62837;51.082;13.744;2023-07-20T09:28:03;100019.45;;;24.79;48.77
74403;BME280;62837;51.082;13.744;2023-07-20T09:30:35;100022.34;;;24.79;48.51
74403;BME280;62837;51.082;13.744;2023-07-20T09:33:19;100022.26;;;24.67;48.46
74403;BME280;62837;51.082;13.744;2023-07-20T09:35:54;100024.52;;;24.57;48.19
74403;BME280;62837;51.082;13.744;2023-07-20T09:38:52;100024.76;;;24.43;47.69
74403;BME280;62837;51.082;13.744;2023-07-20T09:41:26;100028.39;;;24.32;48.19
74403;BME280;62837;51.082;13.744;2023-07-20T09:44:02;100035.30;;;24.26;48.05
74403;BME280;62837;51.082;13.744;2023-07-20T09:46:54;100039.86;;;24.04;48.16
74403;BME280;62837;51.082;13.744;2023-07-20T09:49:28;100040.85;;;23.86;48.97
74403;BME280;62837;51.082;13.744;2023-07-20T09:52:20;100039.83;;;23.68;49.84
74403;BME280;62837;51.082;13.744;2023-07-20T09:54:55;100046.45;;;23.51;50.34
74403;BME280;62837;51.082;13.744;2023-07-20T09:57:27;100047.45;;;23.35;50.81
74403;BME280;62837;51.082;13.744;2023-07-20T09:59:59;100045.99;;;23.25;51.28
74403;BME280;62837;51.082;13.744;2023-07-20T10:02:36;100050.69;;;23.26;51.38
74403;BME280;62837;51.082;13.744;2023-07-20T10:05:10;100055.52;;;23.24;51.86
74403;BME280;62837;51.082;13.744;2023-07-20T10:07:46;100063.09;;;23.18;51.89
74403;BME280;62837;51.082;13.744;2023-07-20T10:10:19;100075.54;;;23.17;52.06
74403;BME280;62837;51.082;13.744;2023-07-20T10:12:50;100069.14;;;23.17;52.43
74403;BME280;62837;51.082;13.744;2023-07-20T10:15:27;100066.05;;;23.15;52.62
74403;BME280;62837;51.082;13.744;2023-07-20T10:18:05;100056.19;;;23.15;52.73
74403;BME280;62837;51.082;13.744;2023-07-20T10:20:40;100056.91;;;23.21;52.76
74403;BME280;62837;51.082;13.744;2023-07-20T10:23:32;100058.79;;;23.29;52.82
74403;BME280;62837;51.082;13.744;2023-07-20T10:26:03;100061.73;;;23.33;53.31
74403;BME280;62837;51.082;13.744;2023-07-20T10:28:35;100065.81;;;23.27;53.34
74403;BME280;62837;51.082;13.744;2023-07-20T10:31:09;100059.87;;;23.20;53.77
74403;BME280;62837;51.082;13.744;2023-07-20T10:33:41;100052.30;;;23.16;53.87
74403;BME280;62837;51.082;13.744;2023-07-20T10:36:12;100057.09;;;23.13;54.20
74403;BME280;62837;51.082;13.744;2023-07-20T10:38:52;100063.45;;;23.02;55.21
74403;BME280;62837;51.082;13.744;2023-07-20T10:41:28;100057.05;;;22.83;55.17
74403;BME280;62837;51.082;13.744;2023-07-20T10:44:03;100060.74;;;22.82;55.37
74403;BME280;62837;51.082;13.744;2023-07-20T10:46:44;100056.02;;;22.82;55.09
74403;BME280;62837;51.082;13.744;2023-07-20T10:49:16;100051.33;;;22.92;54.76
74403;BME280;62837;51.082;13.744;2023-07-20T10:51:57;100053.81;;;22.97;54.67
74403;BME280;62837;51.082;13.744;2023-07-20T10:54:49;100054.95;;;22.88;55.15
74403;BME280;62837;51.082;13.744;2023-07-20T10:57:30;100052.11;;;22.82;55.05
74403;BME280;62837;51.082;13.744;2023-07-20T11:00:13;100049.42;;;22.84;54.93
74403;BME280;62837;51.082;13.744;2023-07-20T11:02:49;100053.80;;;22.96;54.66
74403;BME280;62837;51.082;13.744;2023-07-20T11:05:38;100057.23;;;23.08;54.67
74403;BME280;62837;51.082;13.744;2023-07-20T11:08:13;100056.06;;;23.16;54.25
74403;BME280;62837;51.082;13.744;2023-07-20T11:11:22;100048.71;;;23.17;53.82
74403;BME280;62837;51.082;13.744;2023-07-20T11:13:58;100043.29;;;23.18;53.77
74403;BME280;62837;51.082;13.744;2023-07-20T11:16:40;100041.02;;;23.22;53.50
74403;BME280;62837;51.082;13.744;2023-07-20T11:19:19;100040.04;;;23.27;53.44
74403;BME280;62837;51.082;13.744;2023-07-20T11:21:54;100042.29;;;23.29;53.63
74403;BME280;62837;51.082;13.744;2023-07-20T11:24:33;100041.58;;;23.34;53.61
74403;BME280;62837;51.082;13.744;2023-07-20T11:27:03;100035.74;;;23.35;53.48
74403;BME280;62837;51.082;13.744;2023-07-20T11:29:35;100032.52;;;23.49;53.52
74403;BME280;62837;51.082;13.744;2023-07-20T11:32:08;100026.50;;;23.70;53.28
74403;BME280;62837;51.082;13.744;2023-07-20T11:34:39;100025.99;;;23.83;52.91
74403;BME280;62837;51.082;13.744;2023-07-20T11:37:10;100027.55;;;24.00;52.29
74403;BME280;62837;51.082;13.744;2023-07-20T11:39:41;100029.11;;;24.20;52.41
74403;BME280;62837;51.082;13.744;2023-07-20T11:42:13;100028.05;;;24.34;52.39
74403;BME280;62837;51.082;13.744;2023-07-20T11:44:52;100022.85;;;24.44;52.45
74403;BME280;62837;51.082;13.744;2023-07-20T11:47:30;100022.80;;;24.48;51.48
74403;BME280;62837;51.082;13.744;2023-07-20T11:50:06;100020.14;;;24.48;50.97
74403;BME280;62837;51.082;13.744;2023-07-20T11:52:38;100022.00;;;24.41;51.13
74403;BME280;62837;51.082;13.744;2023-07-20T11:55:10;100019.82;;;24.38;50.23
74403;BME280;62837;51.082;13.744;2023-07-20T11:57:42;100028.00;;;24.29;50.67
74403;BME280;62837;51.082;13.744;2023-07-20T12:00:31;100030.11;;;24.24;50.92
74403;BME280;62837;51.082;13.744;2023-07-20T12:03:05;100025.92;;;24.11;50.56
74403;BME280;62837;51.082;13.744;2023-07-20T12:05:38;100028.71;;;23.96;50.90
74403;BME280;62837;51.082;13.744;2023-07-20T12:08:29;100030.23;;;23.77;51.45
74403;BME280;62837;51.082;13.744;2023-07-20T12:11:03;100028.71;;;23.61;52.20
74403;BME280;62837;51.082;13.744;2023-07-20T12:13:41;100037.33;;;23.47;52.70
74403;BME280;62837;51.082;13.744;2023-07-20T12:16:14;100042.41;;;23.38;53.10
74403;BME280;62837;51.082;13.744;2023-07-20T12:18:46;100046.83;;;23.36;53.00
74403;BME280;62837;51.082;13.744;2023-07-20T12:21:20;100046.29;;;23.24;53.49
74403;BME280;62837;51.082;13.744;2023-07-20T12:23:51;100045.23;;;23.13;54.07
74403;BME280;62837;51.082;13.744;2023-07-20T12:26:22;100044.66;;;23.10;54.29
74403;BME280;62837;51.082;13.744;2023-07-20T12:28:54;100048.02;;;23.03;54.87
74403;BME280;62837;51.082;13.744;2023-07-20T12:31:26;100057.16;;;22.96;55.35
74403;BME280;62837;51.082;13.744;2023-07-20T12:33:59;100057.85;;;22.91;55.92
74403;BME280;62837;51.082;13.744;2023-07-20T12:36:30;100060.45;;;22.87;56.06
74403;BME280;62837;51.082;13.744;2023-07-20T12:39:02;100065.48;;;22.92;56.59
74403;BME280;62837;51.082;13.744;2023-07-20T12:41:34;100063.27;;;22.87;56.56
74403;BME280;62837;51.082;13.744;2023-07-20T12:44:05;100071.90;;;22.86;56.19
74403;BME280;62837;51.082;13.744;2023-07-20T12:46:36;100072.48;;;22.82;56.38
74403;BME280;62837;51.082;13.744;2023-07-20T12:49:08;100069.70;;;22.70;56.67
74403;BME280;62837;51.082;13.744;2023-07-20T12:51:39;100075.59;;;22.60;57.15
74403;BME280;62837;51.082;13.744;2023-07-20T12:54:11;100079.91;;;22.46;57.72
74403;BME280;62837;51.082;13.744;2023-07-20T12:56:42;100084.48;;;22.47;57.25
74403;BME280;62837;51.082;13.744;2023-07-20T12:59:16;100083.42;;;22.44;56.90
74403;BME280;62837;51.082;13.744;2023-07-20T13:01:47;100089.81;;;22.48;57.70
74403;BME280;62837;51.082;13.744;2023-07-20T13:04:18;100089.63;;;22.41;57.82
74403;BME280;62837;51.082;13.744;2023-07-20T13:06:49;100084.04;;;22.37;58.16
74403;BME280;62837;51.082;13.744;2023-07-20T13:09:20;100080.59;;;22.32;58.14
74403;BME280;62837;51.082;13.744;2023-07-20T13:11:51;100085.11;;;22.37;58.22
74403;BME280;62837;51.082;13.744;2023-07-20T13:14:21;100076.85;;;22.33;58.05
74403;BME280;62837;51.082;13.744;2023-07-20T13:16:51;100074.80;;;22.31;57.83
74403;BME280;62837;51.082;13.744;2023-07-20T13:19:23;100069.11;;;22.29;57.92
74403;BME280;62837;51.082;13.744;2023-07-20T13:21:54;100064.57;;;22.34;58.12